createdAt,value
2019-05-26T00:00:06.851Z,21.52
2019-05-26T00:00:40.874Z,20.12
2019-05-26T00:01:14.311Z,21.50
2019-05-26T00:01:48.308Z,23.92
2019-05-26T00:02:22.304Z,24.23
2019-05-26T00:02:55.719Z,22.45
2019-05-26T00:03:29.716Z,24.43
2019-05-26T00:04:03.722Z,24.47
2019-05-26T00:04:37.130Z,20.08
2019-05-26T00:05:11.132Z,23.65
2019-05-26T00:05:45.122Z,25.85
2019-05-26T00:06:18.728Z,22.32
2019-05-26T00:06:52.744Z,25.75
2019-05-26T00:07:30.565Z,22.10
2019-05-26T00:08:02.030Z,22.40
2019-05-26T00:08:36.060Z,25.27
2019-05-26T00:09:10.170Z,23.38
2019-05-26T00:09:43.702Z,25.23
2019-05-26T00:10:17.898Z,22.55
2019-05-26T00:10:51.902Z,24.23
2019-05-26T00:11:25.587Z,23.40
2019-05-26T00:11:59.613Z,22.40
2019-05-26T00:12:33.633Z,25.00
2019-05-26T00:13:07.078Z,25.32
2019-05-26T00:13:41.077Z,20.92
2019-05-26T00:14:15.245Z,22.75
2019-05-26T00:14:48.725Z,23.22
2019-05-26T00:15:22.724Z,27.93
2019-05-26T00:15:56.923Z,23.55
2019-05-26T00:16:30.339Z,23.57
2019-05-26T00:17:04.331Z,24.60
2019-05-26T00:17:38.342Z,27.30
2019-05-26T00:18:11.780Z,22.27
2019-05-26T00:18:45.893Z,25.90
2019-05-26T00:19:19.992Z,27.45
2019-05-26T00:19:53.408Z,22.77
2019-05-26T00:20:27.404Z,25.30
2019-05-26T00:21:01.405Z,26.73
2019-05-26T00:21:35.075Z,25.85
2019-05-26T00:22:09.232Z,24.82
2019-05-26T00:22:43.221Z,27.07
2019-05-26T00:23:16.801Z,25.02
2019-05-26T00:23:50.818Z,24.30
2019-05-26T00:24:24.834Z,24.32
2019-05-26T00:24:58.233Z,26.75
2019-05-26T00:25:32.235Z,24.10
2019-05-26T00:26:06.405Z,24.07
2019-05-26T00:26:39.812Z,24.85
2019-05-26T00:27:13.815Z,23.55
2019-05-26T00:27:47.812Z,27.87
2019-05-26T00:28:21.312Z,26.45
2019-05-26T00:28:55.400Z,24.02
2019-05-26T00:29:29.415Z,26.55
2019-05-26T00:30:03.412Z,26.05
2019-05-26T00:30:37.407Z,26.65
2019-05-26T00:31:11.453Z,26.45
2019-05-26T00:31:44.991Z,28.92
2019-05-26T00:32:19.035Z,29.67
2019-05-26T00:32:53.036Z,30.30
2019-05-26T00:33:26.448Z,29.40
2019-05-26T00:34:00.445Z,30.20
2019-05-26T00:34:34.524Z,27.32
2019-05-26T00:35:08.292Z,30.37
2019-05-26T00:35:42.284Z,25.70
2019-05-26T00:36:16.529Z,30.70
2019-05-26T00:36:49.979Z,26.93
2019-05-26T00:37:23.976Z,26.97
2019-05-26T00:37:57.971Z,23.70
2019-05-26T00:38:31.400Z,30.20
2019-05-26T00:39:07.042Z,34.48
2019-05-26T00:39:41.041Z,25.30
2019-05-26T00:40:14.566Z,24.60
2019-05-26T00:40:48.593Z,28.05
2019-05-26T00:41:22.584Z,24.25
2019-05-26T00:41:56.003Z,30.12
2019-05-26T00:42:30.053Z,30.17
2019-05-26T00:43:04.187Z,27.07
2019-05-26T00:43:37.600Z,29.05
2019-05-26T00:44:11.595Z,29.10
2019-05-26T00:44:45.607Z,29.18
2019-05-26T00:45:19.180Z,26.42
2019-05-26T00:45:53.205Z,31.97
2019-05-26T00:46:27.218Z,27.20
2019-05-26T00:47:00.636Z,25.82
2019-05-26T00:47:34.632Z,29.45
2019-05-26T00:48:08.633Z,30.80
2019-05-26T00:48:42.338Z,29.00
2019-05-26T00:49:16.514Z,25.85
2019-05-26T00:49:50.522Z,28.67
2019-05-26T00:50:24.323Z,29.02
2019-05-26T00:50:58.510Z,26.50
2019-05-26T00:51:32.532Z,26.23
2019-05-26T00:52:06.635Z,26.70
2019-05-26T00:52:40.637Z,27.17
2019-05-26T00:53:14.633Z,28.73
2019-05-26T00:53:48.122Z,29.30
2019-05-26T00:54:22.122Z,26.10
2019-05-26T00:54:56.115Z,27.73
2019-05-26T00:55:29.530Z,31.02
2019-05-26T00:56:03.528Z,27.90
2019-05-26T00:56:37.669Z,29.32
2019-05-26T00:57:11.099Z,28.83
2019-05-26T00:57:45.242Z,29.67
2019-05-26T00:58:19.347Z,26.15
2019-05-26T00:58:52.977Z,31.52
2019-05-26T00:59:26.977Z,29.32
2019-05-26T01:00:00.976Z,27.50
2019-05-26T01:00:43.895Z,28.02
2019-05-26T01:01:17.887Z,34.03
2019-05-26T01:01:51.890Z,26.85
2019-05-26T01:02:25.295Z,30.32
2019-05-26T01:02:59.316Z,31.23
2019-05-26T01:03:33.336Z,29.12
2019-05-26T01:04:06.756Z,29.87
2019-05-26T01:04:40.859Z,32.67
2019-05-26T01:05:14.963Z,29.25
2019-05-26T01:05:48.378Z,33.10
2019-05-26T01:06:22.378Z,30.17
2019-05-26T01:06:56.383Z,31.07
2019-05-26T01:07:30.080Z,30.50
2019-05-26T01:08:06.765Z,30.72
2019-05-26T01:08:41.046Z,27.48
2019-05-26T01:09:14.490Z,31.70
2019-05-26T01:09:48.495Z,32.55
2019-05-26T01:10:22.498Z,30.52
2019-05-26T01:10:55.913Z,30.32
2019-05-26T01:11:30.059Z,29.72
2019-05-26T01:12:04.047Z,28.20
2019-05-26T01:12:37.462Z,27.22
2019-05-26T01:13:11.473Z,28.42
2019-05-26T01:13:45.479Z,28.30
2019-05-26T01:14:18.914Z,28.87
2019-05-26T01:14:52.928Z,26.10
2019-05-26T01:15:26.920Z,25.50
2019-05-26T01:16:00.345Z,30.70
2019-05-26T01:16:34.340Z,30.08
2019-05-26T01:17:08.345Z,26.52
2019-05-26T01:17:41.749Z,26.35
2019-05-26T01:18:15.751Z,29.35
2019-05-26T01:18:49.911Z,29.52
2019-05-26T01:19:23.519Z,28.00
2019-05-26T01:19:57.611Z,28.05
2019-05-26T01:20:31.633Z,27.02
2019-05-26T01:21:05.040Z,30.05
2019-05-26T01:21:39.242Z,33.90
2019-05-26T01:22:13.243Z,26.35
2019-05-26T01:22:46.660Z,26.70
2019-05-26T01:23:20.658Z,26.70
2019-05-26T01:23:54.651Z,26.45
2019-05-26T01:24:28.464Z,24.37
2019-05-26T01:25:02.455Z,25.57
2019-05-26T01:25:36.478Z,26.17
2019-05-26T01:26:09.991Z,29.60
2019-05-26T01:26:43.987Z,28.95
2019-05-26T01:27:17.988Z,27.10
2019-05-26T01:27:51.408Z,28.10
2019-05-26T01:28:25.400Z,26.33
2019-05-26T01:28:59.400Z,25.55
2019-05-26T01:29:33.023Z,27.73
2019-05-26T01:30:10.828Z,27.48
2019-05-26T01:30:44.874Z,27.25
2019-05-26T01:31:18.559Z,30.95
2019-05-26T01:31:52.827Z,27.10
2019-05-26T01:32:26.822Z,27.48
2019-05-26T01:33:00.239Z,32.08
2019-05-26T01:33:34.239Z,27.85
2019-05-26T01:34:08.240Z,27.75
2019-05-26T01:34:41.948Z,26.33
2019-05-26T01:35:16.134Z,23.87
2019-05-26T01:35:50.131Z,28.38
2019-05-26T01:36:23.719Z,24.67
2019-05-26T01:36:57.731Z,26.82
2019-05-26T01:37:31.767Z,25.02
2019-05-26T01:38:21.986Z,28.00
2019-05-26T01:38:41.008Z,24.12
2019-05-26T01:39:15.012Z,25.45
2019-05-26T01:39:48.424Z,28.30
2019-05-26T01:40:25.678Z,27.13
2019-05-26T01:40:59.676Z,25.55
2019-05-26T01:41:33.292Z,27.40
2019-05-26T01:42:07.315Z,30.15
2019-05-26T01:42:41.319Z,26.50
2019-05-26T01:43:14.822Z,28.32
2019-05-26T01:43:48.820Z,27.85
2019-05-26T01:44:22.823Z,28.73
2019-05-26T01:44:56.447Z,27.55
2019-05-26T01:45:30.452Z,26.25
2019-05-26T01:46:04.448Z,26.37
2019-05-26T01:46:38.350Z,31.50
2019-05-26T01:47:12.507Z,23.98
2019-05-26T01:47:46.503Z,25.30
2019-05-26T01:48:19.930Z,27.17
2019-05-26T01:48:53.950Z,27.95
2019-05-26T01:49:27.951Z,32.00
2019-05-26T01:50:01.378Z,34.08
2019-05-26T01:50:35.366Z,28.62
2019-05-26T01:51:09.363Z,28.70
2019-05-26T01:51:43.101Z,26.23
2019-05-26T01:52:17.093Z,31.20
2019-05-26T01:52:51.088Z,28.15
2019-05-26T01:53:24.510Z,28.92
2019-05-26T01:53:58.528Z,27.22
2019-05-26T01:54:32.550Z,27.15
2019-05-26T01:55:06.727Z,28.07
2019-05-26T01:55:40.728Z,27.55
2019-05-26T01:56:14.752Z,27.48
2019-05-26T01:56:48.259Z,28.05
2019-05-26T01:57:22.707Z,27.52
2019-05-26T01:57:56.707Z,25.85
2019-05-26T01:58:30.258Z,24.90
2019-05-26T01:59:04.258Z,27.22
2019-05-26T01:59:38.275Z,30.85
2019-05-26T02:00:12.173Z,30.62
2019-05-26T02:00:46.171Z,25.08
2019-05-26T02:01:20.172Z,27.85
2019-05-26T02:01:53.667Z,26.85
2019-05-26T02:02:27.727Z,29.00
2019-05-26T02:03:01.787Z,26.52
2019-05-26T02:03:35.501Z,27.32
2019-05-26T02:04:09.499Z,25.75
2019-05-26T02:04:43.497Z,24.43
2019-05-26T02:05:16.922Z,29.48
2019-05-26T02:05:50.942Z,24.27
2019-05-26T02:06:24.939Z,26.68
2019-05-26T02:06:58.561Z,26.30
2019-05-26T02:07:32.622Z,27.07
2019-05-26T02:08:06.590Z,26.27
2019-05-26T02:08:40.247Z,24.67
2019-05-26T02:09:14.250Z,24.45
2019-05-26T02:09:48.248Z,26.75
2019-05-26T02:10:21.666Z,25.85
2019-05-26T02:10:55.680Z,27.93
2019-05-26T02:11:29.928Z,26.05
2019-05-26T02:12:03.483Z,25.97
2019-05-26T02:12:37.488Z,24.57
2019-05-26T02:13:11.592Z,23.25
2019-05-26T02:13:45.111Z,30.02
2019-05-26T02:14:19.114Z,26.93
2019-05-26T02:14:53.247Z,26.48
2019-05-26T02:15:26.752Z,25.68
2019-05-26T02:16:00.865Z,24.65
2019-05-26T02:16:34.888Z,27.20
2019-05-26T02:17:08.409Z,25.72
2019-05-26T02:17:42.399Z,25.23
2019-05-26T02:18:16.399Z,28.57
2019-05-26T02:18:49.820Z,30.35
2019-05-26T02:19:23.919Z,29.67
2019-05-26T02:19:58.024Z,26.82
2019-05-26T02:20:31.440Z,28.75
2019-05-26T02:21:05.435Z,26.60
2019-05-26T02:21:39.436Z,25.45
2019-05-26T02:22:12.937Z,25.00
2019-05-26T02:22:46.971Z,26.95
2019-05-26T02:23:20.978Z,25.08
2019-05-26T02:23:54.393Z,27.85
2019-05-26T02:24:28.393Z,26.48
2019-05-26T02:25:02.415Z,24.57
2019-05-26T02:25:35.812Z,27.48
2019-05-26T02:26:09.808Z,25.92
2019-05-26T02:26:43.799Z,24.20
2019-05-26T02:27:17.237Z,26.68
2019-05-26T02:27:51.256Z,24.77
2019-05-26T02:28:25.274Z,26.77
2019-05-26T02:28:58.693Z,24.15
2019-05-26T02:29:32.767Z,27.40
2019-05-26T02:30:11.030Z,26.30
2019-05-26T02:30:44.520Z,27.95
2019-05-26T02:31:18.516Z,31.12
2019-05-26T02:31:52.526Z,27.20
2019-05-26T02:32:26.074Z,25.88
2019-05-26T02:33:00.130Z,29.27
2019-05-26T02:33:34.156Z,24.05
2019-05-26T02:34:07.598Z,22.80
2019-05-26T02:34:41.589Z,21.23
2019-05-26T02:35:15.592Z,26.23
2019-05-26T02:35:49.152Z,26.33
2019-05-26T02:36:23.149Z,26.05
2019-05-26T02:36:57.216Z,26.17
2019-05-26T02:37:30.728Z,26.12
2019-05-26T02:38:04.789Z,29.00
2019-05-26T02:38:57.396Z,24.95
2019-05-26T02:39:13.866Z,22.87
2019-05-26T02:39:47.888Z,24.65
2019-05-26T02:40:22.228Z,24.63
2019-05-26T02:40:55.775Z,24.63
2019-05-26T02:41:29.829Z,24.43
2019-05-26T02:42:03.848Z,22.80
2019-05-26T02:42:37.264Z,26.75
2019-05-26T02:43:11.325Z,25.35
2019-05-26T02:43:45.329Z,25.72
2019-05-26T02:44:18.997Z,28.17
2019-05-26T02:44:53.018Z,24.40
2019-05-26T02:45:27.040Z,26.35
2019-05-26T02:46:00.461Z,27.02
2019-05-26T02:46:34.462Z,23.22
2019-05-26T02:47:08.457Z,23.87
2019-05-26T02:47:42.063Z,23.20
2019-05-26T02:48:16.061Z,24.98
2019-05-26T02:48:50.056Z,23.98
2019-05-26T02:49:23.471Z,23.77
2019-05-26T02:49:57.480Z,21.90
2019-05-26T02:50:31.492Z,20.72
2019-05-26T02:51:04.950Z,22.98
2019-05-26T02:51:38.964Z,28.10
2019-05-26T02:52:13.070Z,27.10
2019-05-26T02:52:46.482Z,22.70
2019-05-26T02:53:24.511Z,22.95
2019-05-26T02:53:56.122Z,22.45
2019-05-26T02:54:29.543Z,24.72
2019-05-26T02:55:03.706Z,23.57
2019-05-26T02:55:37.712Z,24.02
2019-05-26T02:56:11.220Z,23.42
2019-05-26T02:56:45.307Z,25.12
2019-05-26T02:57:19.295Z,24.02
2019-05-26T02:57:52.897Z,21.87
2019-05-26T02:58:26.932Z,26.07
2019-05-26T02:59:00.926Z,24.95
2019-05-26T02:59:34.549Z,24.37
2019-05-26T03:00:12.473Z,24.43
2019-05-26T03:00:47.004Z,24.45
2019-05-26T03:01:20.452Z,26.65
2019-05-26T03:02:03.098Z,23.80
2019-05-26T03:02:30.396Z,24.35
2019-05-26T03:03:03.817Z,24.40
2019-05-26T03:03:37.890Z,26.17
2019-05-26T03:04:11.956Z,23.50
2019-05-26T03:04:45.473Z,26.07
2019-05-26T03:05:19.537Z,25.10
2019-05-26T03:05:53.537Z,26.30
2019-05-26T03:06:27.156Z,24.98
2019-05-26T03:07:01.421Z,24.43
2019-05-26T03:07:35.445Z,22.60
2019-05-26T03:08:08.878Z,21.17
2019-05-26T03:08:43.621Z,22.93
2019-05-26T03:09:23.179Z,23.73
2019-05-26T03:09:52.680Z,23.40
2019-05-26T03:10:26.940Z,24.47
2019-05-26T03:11:00.942Z,26.80
2019-05-26T03:11:34.859Z,23.92
2019-05-26T03:12:08.856Z,24.00
2019-05-26T03:12:43.187Z,24.82
2019-05-26T03:13:17.238Z,22.73
2019-05-26T03:13:51.321Z,24.70
2019-05-26T03:14:25.316Z,25.40
2019-05-26T03:14:58.740Z,24.37
2019-05-26T03:15:33.414Z,23.98
2019-05-26T03:16:07.410Z,21.75
2019-05-26T03:16:40.826Z,27.25
2019-05-26T03:17:15.001Z,25.48
2019-05-26T03:17:48.992Z,27.95
2019-05-26T03:18:22.411Z,21.65
2019-05-26T03:18:56.431Z,22.10
2019-05-26T03:19:30.483Z,26.35
2019-05-26T03:20:04.068Z,26.30
2019-05-26T03:20:40.498Z,23.55
2019-05-26T03:21:14.604Z,21.87
2019-05-26T03:21:49.556Z,28.27
2019-05-26T03:22:24.341Z,22.07
2019-05-26T03:22:58.512Z,22.32
2019-05-26T03:23:31.955Z,21.37
2019-05-26T03:24:05.973Z,24.05
2019-05-26T03:24:39.976Z,23.98
2019-05-26T03:25:13.493Z,20.27
2019-05-26T03:25:47.486Z,22.58
2019-05-26T03:26:21.491Z,22.22
2019-05-26T03:26:54.892Z,20.23
2019-05-26T03:27:28.887Z,23.18
2019-05-26T03:28:02.895Z,21.20
2019-05-26T03:28:36.311Z,25.43
2019-05-26T03:29:10.491Z,24.02
2019-05-26T03:29:44.484Z,22.58
2019-05-26T03:30:17.931Z,24.07
2019-05-26T03:30:51.954Z,23.18
2019-05-26T03:31:25.949Z,20.27
2019-05-26T03:31:59.373Z,22.45
2019-05-26T03:32:33.560Z,22.60
2019-05-26T03:33:07.554Z,22.25
2019-05-26T03:33:40.978Z,24.02
2019-05-26T03:34:14.972Z,21.75
2019-05-26T03:34:48.970Z,21.70
2019-05-26T03:35:22.532Z,21.62
2019-05-26T03:35:56.537Z,19.95
2019-05-26T03:36:30.556Z,23.45
2019-05-26T03:37:03.970Z,24.23
2019-05-26T03:37:37.980Z,20.32
2019-05-26T03:38:11.968Z,21.45
2019-05-26T03:38:45.385Z,23.57
2019-05-26T03:39:19.384Z,23.75
2019-05-26T03:39:53.390Z,23.70
2019-05-26T03:40:26.877Z,23.98
2019-05-26T03:41:01.025Z,22.48
2019-05-26T03:41:35.049Z,18.95
2019-05-26T03:42:08.592Z,22.80
2019-05-26T03:42:42.597Z,21.70
2019-05-26T03:43:16.593Z,20.68
2019-05-26T03:43:50.014Z,20.30
2019-05-26T03:44:24.116Z,21.90
2019-05-26T03:44:58.219Z,22.10
2019-05-26T03:45:40.503Z,21.50
2019-05-26T03:46:17.393Z,21.75
2019-05-26T03:46:51.598Z,18.82
2019-05-26T03:47:25.116Z,20.43
2019-05-26T03:47:59.135Z,22.07
2019-05-26T03:48:33.132Z,19.80
2019-05-26T03:49:06.549Z,20.43
2019-05-26T03:49:40.554Z,20.05
2019-05-26T03:50:14.573Z,23.42
2019-05-26T03:50:48.050Z,21.27
2019-05-26T03:51:22.155Z,21.30
2019-05-26T03:51:56.144Z,20.12
2019-05-26T03:52:29.568Z,20.40
2019-05-26T03:53:03.597Z,23.05
2019-05-26T03:53:37.591Z,19.02
2019-05-26T03:54:11.144Z,26.17
2019-05-26T03:54:45.156Z,18.85
2019-05-26T03:55:19.144Z,20.85
2019-05-26T03:55:52.567Z,21.05
2019-05-26T03:56:26.566Z,19.82
2019-05-26T03:57:00.558Z,22.27
2019-05-26T03:57:33.972Z,19.87
2019-05-26T03:58:08.029Z,18.60
2019-05-26T03:58:42.041Z,18.73
2019-05-26T03:59:15.540Z,21.23
2019-05-26T03:59:49.537Z,20.52
2019-05-26T04:00:23.537Z,25.70
2019-05-26T04:00:56.940Z,19.15
2019-05-26T04:01:30.942Z,20.02
2019-05-26T04:02:04.936Z,19.45
2019-05-26T04:02:38.352Z,21.33
2019-05-26T04:03:12.351Z,18.02
2019-05-26T04:03:46.396Z,21.40
2019-05-26T04:04:19.814Z,22.15
2019-05-26T04:04:53.813Z,21.40
2019-05-26T04:05:27.930Z,23.32
2019-05-26T04:06:01.470Z,18.67
2019-05-26T04:06:35.472Z,19.32
2019-05-26T04:07:09.470Z,19.62
2019-05-26T04:07:42.978Z,22.62
2019-05-26T04:08:16.981Z,19.42
2019-05-26T04:08:51.053Z,20.77
2019-05-26T04:09:24.768Z,19.90
2019-05-26T04:10:05.316Z,17.00
2019-05-26T04:10:34.520Z,19.37
2019-05-26T04:11:08.063Z,19.48
2019-05-26T04:11:42.059Z,16.73
2019-05-26T04:12:16.227Z,19.82
2019-05-26T04:12:49.640Z,19.65
2019-05-26T04:13:23.641Z,21.95
2019-05-26T04:13:57.645Z,18.82
2019-05-26T04:14:31.061Z,17.55
2019-05-26T04:15:07.137Z,17.07
2019-05-26T04:15:41.431Z,18.35
2019-05-26T04:16:14.961Z,18.85
2019-05-26T04:16:48.975Z,18.42
2019-05-26T04:17:22.956Z,18.45
2019-05-26T04:17:56.612Z,18.37
2019-05-26T04:18:30.716Z,18.65
2019-05-26T04:19:04.807Z,19.52
2019-05-26T04:19:38.532Z,16.73
2019-05-26T04:20:12.517Z,16.35
2019-05-26T04:20:46.536Z,18.98
2019-05-26T04:21:20.039Z,22.30
2019-05-26T04:21:54.115Z,15.43
2019-05-26T04:22:28.121Z,16.37
2019-05-26T04:23:01.613Z,16.80
2019-05-26T04:23:35.771Z,19.12
2019-05-26T04:24:09.799Z,14.85
2019-05-26T04:24:43.260Z,18.55
2019-05-26T04:25:17.286Z,17.62
2019-05-26T04:25:51.255Z,18.35
2019-05-26T04:26:24.992Z,17.15
2019-05-26T04:26:59.011Z,16.32
2019-05-26T04:27:33.007Z,18.32
2019-05-26T04:28:06.491Z,16.62
2019-05-26T04:28:40.513Z,17.12
2019-05-26T04:29:14.609Z,17.50
2019-05-26T04:29:48.324Z,20.77
2019-05-26T04:30:22.318Z,18.05
2019-05-26T04:30:56.572Z,20.82
2019-05-26T04:31:30.010Z,14.75
2019-05-26T04:32:04.233Z,18.92
2019-05-26T04:32:38.232Z,21.25
2019-05-26T04:33:11.811Z,16.02
2019-05-26T04:33:45.871Z,17.50
2019-05-26T04:34:19.872Z,17.57
2019-05-26T04:34:53.428Z,16.80
2019-05-26T04:35:27.369Z,15.38
2019-05-26T04:36:01.365Z,22.98
2019-05-26T04:36:34.838Z,14.38
2019-05-26T04:37:08.828Z,20.10
2019-05-26T04:37:42.848Z,19.57
2019-05-26T04:38:16.306Z,16.55
2019-05-26T04:38:50.314Z,17.00
2019-05-26T04:39:24.415Z,16.50
2019-05-26T04:39:57.907Z,14.15
2019-05-26T04:40:31.963Z,16.35
2019-05-26T04:41:06.099Z,18.00
2019-05-26T04:41:39.518Z,17.17
2019-05-26T04:42:13.526Z,15.20
2019-05-26T04:42:47.573Z,12.60
2019-05-26T04:43:20.963Z,15.28
2019-05-26T04:43:54.984Z,17.57
2019-05-26T04:44:28.991Z,14.55
2019-05-26T04:45:02.424Z,17.42
2019-05-26T04:45:36.428Z,17.15
2019-05-26T04:46:10.544Z,15.68
2019-05-26T04:46:44.056Z,15.95
2019-05-26T04:47:18.057Z,15.80
2019-05-26T04:47:52.051Z,13.50
2019-05-26T04:48:25.478Z,17.15
2019-05-26T04:48:59.517Z,14.18
2019-05-26T04:49:37.480Z,11.65
2019-05-26T04:50:08.957Z,14.33
2019-05-26T04:50:43.002Z,15.58
2019-05-26T04:51:17.008Z,16.52
2019-05-26T04:51:50.424Z,16.73
2019-05-26T04:52:24.431Z,15.50
2019-05-26T04:53:06.305Z,12.90
2019-05-26T04:53:33.496Z,12.28
2019-05-26T04:54:07.505Z,14.95
2019-05-26T04:54:41.531Z,13.18
2019-05-26T04:55:14.971Z,11.15
2019-05-26T04:55:48.976Z,12.88
2019-05-26T04:56:23.072Z,14.75
2019-05-26T04:56:56.622Z,11.68
2019-05-26T04:57:31.060Z,13.40
2019-05-26T04:58:05.533Z,16.12
2019-05-26T04:58:38.950Z,15.55
2019-05-26T04:59:12.948Z,14.40
2019-05-26T04:59:46.952Z,13.03
2019-05-26T05:00:20.953Z,14.45
2019-05-26T05:00:54.970Z,15.53
2019-05-26T05:01:29.054Z,15.63
2019-05-26T05:02:02.573Z,13.88
2019-05-26T05:02:36.634Z,13.20
2019-05-26T05:03:10.636Z,17.40
2019-05-26T05:03:44.048Z,14.83
2019-05-26T05:04:18.054Z,13.53
2019-05-26T05:04:52.145Z,14.63
2019-05-26T05:05:25.621Z,13.80
2019-05-26T05:05:59.645Z,13.22
2019-05-26T05:06:33.840Z,13.43
2019-05-26T05:07:07.336Z,12.05
2019-05-26T05:07:41.405Z,15.63
2019-05-26T05:08:15.401Z,10.38
2019-05-26T05:08:49.002Z,14.35
2019-05-26T05:09:22.998Z,12.88
2019-05-26T05:09:56.989Z,12.10
2019-05-26T05:10:41.823Z,11.65
2019-05-26T05:11:06.235Z,13.08
2019-05-26T05:11:40.250Z,11.88
2019-05-26T05:12:13.684Z,12.80
2019-05-26T05:12:47.688Z,10.43
2019-05-26T05:13:24.774Z,10.72
2019-05-26T05:13:56.757Z,11.80
2019-05-26T05:14:30.908Z,11.33
2019-05-26T05:15:08.474Z,12.40
2019-05-26T05:15:42.096Z,10.23
2019-05-26T05:16:16.256Z,12.40
2019-05-26T05:16:50.253Z,11.93
2019-05-26T05:17:23.699Z,10.98
2019-05-26T05:17:57.720Z,13.80
2019-05-26T05:18:31.729Z,12.88
2019-05-26T05:19:05.268Z,13.50
2019-05-26T05:19:39.267Z,14.90
2019-05-26T05:20:13.440Z,10.63
2019-05-26T05:20:46.956Z,10.43
2019-05-26T05:21:20.950Z,12.98
2019-05-26T05:21:54.959Z,10.18
2019-05-26T05:22:28.535Z,10.90
2019-05-26T05:23:02.705Z,9.98
2019-05-26T05:23:36.831Z,9.85
2019-05-26T05:24:10.300Z,12.03
2019-05-26T05:24:44.304Z,9.95
2019-05-26T05:25:18.295Z,14.93
2019-05-26T05:25:51.711Z,13.00
2019-05-26T05:26:25.716Z,11.33
2019-05-26T05:26:59.712Z,12.58
2019-05-26T05:27:33.128Z,11.68
2019-05-26T05:28:07.127Z,11.05
2019-05-26T05:28:41.237Z,11.78
2019-05-26T05:29:14.993Z,9.60
2019-05-26T05:29:48.994Z,11.75
2019-05-26T05:30:23.361Z,10.90
2019-05-26T05:30:56.779Z,11.08
2019-05-26T05:31:30.788Z,9.93
2019-05-26T05:32:04.789Z,11.55
2019-05-26T05:32:38.337Z,9.63
2019-05-26T05:33:12.325Z,8.28
2019-05-26T05:33:46.392Z,13.05
2019-05-26T05:34:19.836Z,9.90
2019-05-26T05:34:53.860Z,10.25
2019-05-26T05:35:27.878Z,10.15
2019-05-26T05:36:01.276Z,10.50
2019-05-26T05:36:35.271Z,10.32
2019-05-26T05:37:09.365Z,9.53
2019-05-26T05:37:42.874Z,11.28
2019-05-26T05:38:16.872Z,11.12
2019-05-26T05:38:50.871Z,9.75
2019-05-26T05:39:24.280Z,8.48
2019-05-26T05:39:58.310Z,11.85
2019-05-26T05:40:32.445Z,11.55
2019-05-26T05:41:05.930Z,14.50
2019-05-26T05:41:40.009Z,9.30
2019-05-26T05:42:14.012Z,10.63
2019-05-26T05:42:47.423Z,8.98
2019-05-26T05:43:21.420Z,14.58
2019-05-26T05:43:55.455Z,13.93
2019-05-26T05:44:29.003Z,9.43
2019-05-26T05:45:03.004Z,8.55
2019-05-26T05:45:37.072Z,12.43
2019-05-26T05:46:10.612Z,12.20
2019-05-26T05:46:44.759Z,10.93
2019-05-26T05:47:18.761Z,8.70
2019-05-26T05:47:52.172Z,10.65
2019-05-26T05:48:26.167Z,10.65
2019-05-26T05:49:00.227Z,10.43
2019-05-26T05:49:33.648Z,11.55
2019-05-26T05:50:10.447Z,8.38
2019-05-26T05:50:44.680Z,9.75
2019-05-26T05:51:18.117Z,12.13
2019-05-26T05:51:52.251Z,11.38
2019-05-26T05:52:26.375Z,11.00
2019-05-26T05:52:59.883Z,13.35
2019-05-26T05:53:33.883Z,10.03
2019-05-26T05:54:07.888Z,11.65
2019-05-26T05:54:41.454Z,8.13
2019-05-26T05:55:15.445Z,9.48
2019-05-26T05:55:49.450Z,7.67
2019-05-26T05:56:22.948Z,10.40
2019-05-26T05:56:57.006Z,9.55
2019-05-26T05:57:31.023Z,10.70
2019-05-26T05:58:04.515Z,9.18
2019-05-26T05:58:38.542Z,9.83
2019-05-26T05:59:12.512Z,9.48
2019-05-26T05:59:46.196Z,8.58
2019-05-26T06:00:20.381Z,10.88
2019-05-26T06:00:54.476Z,11.15
2019-05-26T06:01:27.883Z,9.05
2019-05-26T06:02:01.916Z,8.58
2019-05-26T06:02:35.893Z,11.10
2019-05-26T06:03:09.608Z,32.15
2019-05-26T06:03:43.754Z,14.87
2019-05-26T06:04:17.749Z,9.20
2019-05-26T06:04:51.163Z,10.58
2019-05-26T06:05:25.160Z,11.00
2019-05-26T06:05:59.167Z,6.97
2019-05-26T06:06:32.577Z,8.18
2019-05-26T06:07:06.811Z,10.43
2019-05-26T06:07:40.907Z,7.45
2019-05-26T06:08:14.356Z,10.20
2019-05-26T06:08:48.486Z,8.55
2019-05-26T06:09:22.591Z,8.60
2019-05-26T06:09:56.304Z,8.00
2019-05-26T06:10:30.301Z,7.12
2019-05-26T06:11:16.110Z,11.30
2019-05-26T06:11:39.351Z,8.25
2019-05-26T06:12:13.351Z,8.43
2019-05-26T06:12:47.504Z,8.65
2019-05-26T06:13:20.911Z,10.55
2019-05-26T06:13:54.936Z,6.47
2019-05-26T06:14:29.212Z,10.03
2019-05-26T06:15:02.697Z,7.60
2019-05-26T06:15:36.743Z,13.50
2019-05-26T06:16:10.746Z,10.90
2019-05-26T06:16:44.388Z,9.13
2019-05-26T06:17:18.418Z,14.78
2019-05-26T06:17:52.384Z,8.48
2019-05-26T06:18:25.792Z,8.65
2019-05-26T06:18:59.795Z,9.63
2019-05-26T06:19:33.809Z,6.28
2019-05-26T06:20:07.676Z,10.45
2019-05-26T06:20:41.682Z,7.45
2019-05-26T06:21:15.670Z,12.28
2019-05-26T06:21:49.336Z,7.78
2019-05-26T06:22:23.336Z,10.80
2019-05-26T06:22:57.340Z,10.15
2019-05-26T06:23:30.820Z,12.45
2019-05-26T06:24:05.363Z,8.50
2019-05-26T06:24:39.564Z,7.72
2019-05-26T06:25:13.142Z,9.30
2019-05-26T06:25:47.156Z,9.40
2019-05-26T06:26:21.425Z,9.13
2019-05-26T06:26:54.831Z,7.35
2019-05-26T06:27:28.844Z,13.58
2019-05-26T06:28:02.838Z,9.83
2019-05-26T06:28:36.372Z,8.60
2019-05-26T06:29:10.532Z,8.23
2019-05-26T06:29:57.826Z,8.63
2019-05-26T06:30:19.718Z,10.75
2019-05-26T06:30:53.736Z,9.83
2019-05-26T06:31:27.929Z,6.50
2019-05-26T06:32:01.598Z,7.58
2019-05-26T06:32:35.675Z,7.03
2019-05-26T06:33:09.738Z,7.87
2019-05-26T06:33:43.152Z,7.85
2019-05-26T06:34:17.148Z,6.08
2019-05-26T06:34:51.145Z,6.45
2019-05-26T06:35:24.729Z,12.23
2019-05-26T06:35:58.827Z,6.40
2019-05-26T06:36:32.848Z,12.30
2019-05-26T06:37:06.374Z,9.53
2019-05-26T06:37:40.373Z,8.70
2019-05-26T06:38:14.582Z,8.20
2019-05-26T06:38:48.327Z,8.30
2019-05-26T06:39:22.316Z,6.97
2019-05-26T06:39:56.312Z,9.48
2019-05-26T06:40:29.807Z,7.28
2019-05-26T06:41:03.808Z,11.90
2019-05-26T06:41:37.975Z,7.62
2019-05-26T06:42:13.059Z,7.45
2019-05-26T06:42:47.070Z,6.80
2019-05-26T06:43:21.065Z,4.47
2019-05-26T06:43:54.606Z,8.83
2019-05-26T06:44:28.751Z,5.95
2019-05-26T06:45:02.891Z,8.60
2019-05-26T06:45:36.599Z,5.03
2019-05-26T06:46:10.669Z,5.78
2019-05-26T06:46:44.668Z,6.05
2019-05-26T06:47:18.087Z,5.28
2019-05-26T06:47:52.140Z,5.95
2019-05-26T06:48:27.100Z,6.20
2019-05-26T06:49:00.690Z,9.25
2019-05-26T06:49:34.689Z,5.87
2019-05-26T06:50:09.916Z,7.55
2019-05-26T06:50:43.502Z,11.75
2019-05-26T06:51:17.498Z,6.78
2019-05-26T06:51:51.487Z,9.25
2019-05-26T06:52:24.980Z,7.85
2019-05-26T06:52:58.981Z,5.62
2019-05-26T06:53:36.476Z,5.70
2019-05-26T06:54:08.571Z,7.78
2019-05-26T06:54:42.575Z,5.67
2019-05-26T06:55:17.039Z,5.78
2019-05-26T06:55:50.447Z,9.33
2019-05-26T06:56:24.444Z,5.85
2019-05-26T06:56:58.439Z,7.72
2019-05-26T06:57:32.071Z,8.38
2019-05-26T06:58:06.071Z,4.65
2019-05-26T06:58:40.072Z,5.55
2019-05-26T06:59:13.506Z,4.83
2019-05-26T06:59:47.517Z,6.90
2019-05-26T07:00:21.732Z,5.30
2019-05-26T07:00:55.447Z,5.12
2019-05-26T07:01:29.444Z,7.45
2019-05-26T07:02:03.521Z,5.78
2019-05-26T07:02:36.933Z,5.95
2019-05-26T07:03:10.928Z,3.95
2019-05-26T07:03:45.073Z,5.22
2019-05-26T07:04:18.483Z,7.95
2019-05-26T07:04:52.675Z,5.12
2019-05-26T07:05:26.691Z,6.47
2019-05-26T07:06:00.107Z,10.25
2019-05-26T07:06:34.099Z,3.85
2019-05-26T07:07:08.095Z,4.42
2019-05-26T07:07:41.685Z,4.47
2019-05-26T07:08:15.668Z,7.47
2019-05-26T07:08:49.841Z,3.47
2019-05-26T07:09:23.259Z,4.10
2019-05-26T07:09:57.257Z,8.58
2019-05-26T07:10:31.280Z,5.90
2019-05-26T07:11:04.785Z,9.00
2019-05-26T07:11:53.816Z,6.20
2019-05-26T07:12:14.452Z,5.47
2019-05-26T07:12:48.157Z,6.40
2019-05-26T07:13:22.159Z,8.03
2019-05-26T07:13:56.148Z,3.98
2019-05-26T07:14:29.559Z,4.55
2019-05-26T07:15:03.637Z,7.30
2019-05-26T07:15:37.632Z,4.72
2019-05-26T07:16:11.067Z,5.22
2019-05-26T07:16:45.083Z,5.70
2019-05-26T07:17:20.659Z,4.92
2019-05-26T07:17:54.206Z,6.15
2019-05-26T07:18:28.204Z,5.45
2019-05-26T07:19:02.290Z,7.30
2019-05-26T07:19:35.895Z,5.92
2019-05-26T07:20:09.971Z,8.18